createdAt,value
2022-08-07T00:02:44.432Z,46.47
2022-08-07T00:07:50.551Z,46.53
2022-08-07T00:12:57.975Z,45.73
2022-08-07T00:18:02.810Z,46.03
2022-08-07T00:23:08.528Z,46.07
2022-08-07T00:33:22.353Z,45.97
2022-08-07T00:38:31.647Z,46.40
2022-08-07T00:48:42.338Z,46.13
2022-08-07T00:53:50.541Z,46.50
2022-08-07T00:58:56.881Z,45.90
2022-08-07T01:04:03.389Z,45.70
2022-08-07T01:09:11.891Z,46.43
2022-08-07T01:14:28.543Z,45.63
2022-08-07T01:19:32.473Z,45.70
2022-08-07T01:24:38.957Z,46.33
2022-08-07T01:29:45.415Z,45.83
2022-08-07T01:34:52.574Z,46.47
2022-08-07T01:39:59.642Z,45.90
2022-08-07T01:45:15.926Z,45.77
2022-08-07T01:50:16.266Z,45.38
2022-08-07T01:55:33.456Z,45.67
2022-08-07T02:00:45.458Z,45.33
2022-08-07T02:05:59.288Z,45.07
2022-08-07T02:11:03.496Z,44.97
2022-08-07T02:16:12.058Z,44.93
2022-08-07T02:21:19.457Z,44.73
2022-08-07T02:26:32.904Z,44.90
2022-08-07T02:31:33.035Z,44.50
2022-08-07T02:36:38.968Z,44.97
2022-08-07T02:41:54.393Z,44.80
2022-08-07T02:46:57.278Z,44.77
2022-08-07T02:52:05.555Z,44.73
2022-08-07T02:57:14.139Z,44.97
2022-08-07T03:02:19.967Z,44.27
2022-08-07T03:07:58.880Z,44.50
2022-08-07T03:12:36.627Z,44.37
2022-08-07T03:17:53.932Z,44.93
2022-08-07T03:22:53.555Z,44.67
2022-08-07T03:28:36.865Z,44.37
2022-08-07T03:33:10.065Z,44.50
2022-08-07T03:38:17.095Z,44.40
2022-08-07T03:43:26.607Z,44.23
2022-08-07T03:48:33.090Z,44.60
2022-08-07T03:54:05.742Z,44.60
2022-08-07T03:59:08.571Z,44.40
2022-08-07T04:03:55.617Z,44.20
2022-08-07T04:09:02.410Z,44.42
2022-08-07T04:14:10.581Z,44.20
2022-08-07T04:19:16.953Z,44.80
2022-08-07T04:24:30.724Z,44.10
2022-08-07T04:29:48.862Z,44.83
2022-08-07T04:34:39.535Z,44.90
2022-08-07T04:39:45.010Z,44.45
2022-08-07T04:45:02.635Z,45.43
2022-08-07T04:50:13.353Z,45.73
2022-08-07T04:58:11.507Z,45.27
2022-08-07T05:00:53.020Z,46.07
2022-08-07T05:06:19.867Z,46.33
2022-08-07T05:11:58.610Z,46.93
2022-08-07T05:16:52.621Z,46.67
2022-08-07T05:22:01.780Z,46.47
2022-08-07T05:27:14.544Z,47.10
2022-08-07T05:32:19.422Z,47.43
2022-08-07T05:37:25.716Z,47.60
2022-08-07T05:42:34.227Z,48.07
2022-08-07T05:48:01.676Z,48.07
2022-08-07T05:52:46.607Z,48.03
2022-08-07T06:03:01.807Z,47.83
2022-08-07T06:08:29.486Z,49.10
2022-08-07T06:13:16.918Z,49.03
2022-08-07T06:18:22.388Z,49.35
2022-08-07T06:24:37.615Z,49.80
2022-08-07T06:28:40.261Z,48.43
2022-08-07T06:33:47.567Z,48.63
2022-08-07T06:40:12.554Z,48.40
2022-08-07T06:44:10.889Z,49.80
2022-08-07T06:49:11.527Z,48.83
2022-08-07T06:55:33.996Z,48.50
2022-08-07T07:00:15.096Z,48.70
2022-08-07T07:09:52.234Z,49.13
2022-08-07T07:15:03.277Z,49.20
2022-08-07T07:20:12.914Z,49.20
2022-08-07T07:26:33.921Z,49.37
2022-08-07T07:30:38.113Z,49.30
2022-08-07T07:35:50.614Z,48.80
2022-08-07T07:40:47.630Z,49.97
2022-08-07T07:46:42.573Z,49.27
2022-08-07T07:51:04.638Z,49.73
2022-08-07T07:56:13.610Z,49.58
2022-08-07T08:02:01.572Z,49.70
2022-08-07T08:06:29.071Z,49.75
2022-08-07T08:11:47.352Z,49.47
2022-08-07T08:16:49.406Z,49.27
2022-08-07T08:22:12.549Z,49.48
2022-08-07T08:27:20.252Z,49.80
2022-08-07T08:32:38.562Z,49.27
2022-08-07T08:38:01.604Z,49.42
2022-08-07T08:42:51.728Z,49.30
2022-08-07T08:48:01.171Z,49.83
2022-08-07T08:53:19.406Z,49.80
2022-08-07T08:58:59.181Z,49.60
2022-08-07T09:04:26.030Z,49.60
2022-08-07T09:09:56.679Z,49.75
2022-08-07T09:16:23.252Z,49.85
2022-08-07T09:20:54.537Z,49.50
2022-08-07T09:25:55.748Z,49.90
2022-08-07T09:31:19.732Z,49.83
2022-08-07T09:36:42.983Z,49.83
2022-08-07T09:42:04.079Z,49.70
2022-08-07T09:47:50.388Z,49.70
2022-08-07T09:52:34.595Z,50.23
2022-08-07T09:57:59.069Z,49.47
2022-08-07T10:04:03.561Z,49.40
2022-08-07T10:08:45.575Z,49.60
2022-08-07T10:14:04.705Z,49.20
2022-08-07T10:19:30.022Z,49.57
2022-08-07T10:24:53.650Z,49.70
2022-08-07T10:30:14.797Z,50.23
2022-08-07T10:35:56.397Z,50.00
2022-08-07T10:41:09.613Z,49.60
2022-08-07T10:46:20.312Z,49.47
2022-08-07T10:51:57.759Z,49.48
2022-08-07T10:56:59.933Z,49.13
2022-08-07T11:02:34.300Z,49.57
2022-08-07T11:08:02.961Z,49.30
2022-08-07T11:14:45.487Z,49.53
2022-08-07T11:18:27.513Z,49.13
2022-08-07T11:23:57.459Z,49.33
2022-08-07T11:29:42.053Z,49.70
2022-08-07T11:34:56.417Z,49.60
2022-08-07T11:40:19.305Z,49.67
2022-08-07T11:45:50.030Z,49.37
2022-08-07T11:56:26.885Z,49.45
2022-08-07T12:01:59.217Z,49.73
2022-08-07T12:07:01.038Z,49.50
2022-08-07T12:12:11.377Z,50.28
2022-08-07T12:17:20.465Z,49.35
2022-08-07T12:22:56.199Z,50.13
2022-08-07T12:28:04.101Z,50.13
2022-08-07T12:33:09.272Z,50.03
2022-08-07T12:38:29.406Z,49.95
2022-08-07T12:44:01.966Z,49.73
2022-08-07T12:48:51.972Z,49.60
2022-08-07T12:54:37.300Z,49.67
2022-08-07T12:59:20.509Z,49.63
2022-08-07T13:04:38.415Z,49.87
2022-08-07T13:10:39.470Z,49.40
2022-08-07T13:15:45.235Z,49.83
2022-08-07T13:21:09.591Z,49.93
2022-08-07T13:26:33.447Z,50.33
2022-08-07T13:31:57.672Z,50.23
2022-08-07T13:37:04.298Z,49.93
2022-08-07T13:42:14.697Z,49.90
2022-08-07T13:47:25.546Z,49.80
2022-08-07T13:52:36.465Z,50.23
2022-08-07T13:57:59.292Z,50.20
2022-08-07T14:02:54.435Z,49.90
2022-08-07T14:08:01.531Z,50.10
2022-08-07T14:13:08.745Z,50.03
2022-08-07T14:18:27.805Z,49.40
2022-08-07T14:23:59.148Z,49.87
2022-08-07T14:28:57.148Z,50.10
2022-08-07T14:33:47.928Z,49.80
2022-08-07T14:38:54.302Z,49.83
2022-08-07T14:44:11.608Z,49.93
2022-08-07T14:49:17.248Z,50.00
2022-08-07T14:54:32.884Z,50.07
2022-08-07T15:00:04.695Z,50.13
2022-08-07T15:04:41.970Z,50.23
2022-08-07T15:09:58.008Z,50.43
2022-08-07T15:15:21.246Z,50.10
2022-08-07T15:20:33.339Z,49.70
2022-08-07T15:25:36.795Z,49.43
2022-08-07T15:31:05.413Z,50.03
2022-08-07T15:36:01.582Z,49.80
2022-08-07T15:41:22.849Z,50.07
2022-08-07T15:46:08.260Z,49.67
2022-08-07T15:51:11.938Z,49.83
2022-08-07T15:56:18.398Z,49.40
2022-08-07T16:01:38.972Z,49.63
2022-08-07T16:06:40.661Z,49.80
2022-08-07T16:12:05.740Z,49.60
2022-08-07T16:18:02.639Z,49.80
2022-08-07T16:23:13.618Z,49.75
2022-08-07T16:30:09.209Z,49.90
2022-08-07T16:34:01.770Z,49.63
2022-08-07T16:39:16.795Z,49.80
2022-08-07T16:45:03.846Z,49.50
2022-08-07T16:50:27.053Z,49.67
2022-08-07T16:55:20.501Z,49.58
2022-08-07T17:00:34.958Z,49.93
2022-08-07T17:06:19.380Z,49.50
2022-08-07T17:16:25.189Z,49.33
2022-08-07T17:21:51.192Z,50.63
2022-08-07T17:27:03.632Z,49.60
2022-08-07T17:32:35.223Z,48.97
2022-08-07T17:38:08.423Z,49.00
2022-08-07T17:43:17.793Z,48.97
2022-08-07T17:54:00.208Z,48.90
2022-08-07T17:58:48.675Z,49.27
2022-08-07T18:04:16.734Z,48.95
2022-08-07T18:10:04.684Z,49.23
2022-08-07T18:14:49.172Z,49.15
2022-08-07T18:21:04.454Z,48.43
2022-08-07T18:25:23.902Z,48.57
2022-08-07T18:30:36.530Z,48.52
2022-08-07T18:35:51.740Z,48.80
2022-08-07T18:41:20.734Z,48.70
2022-08-07T18:46:28.740Z,48.33
2022-08-07T18:52:35.450Z,48.83
2022-08-07T18:57:30.830Z,48.97
2022-08-07T19:02:42.674Z,49.88
2022-08-07T19:08:08.830Z,48.77
2022-08-07T19:13:42.465Z,48.77
2022-08-07T19:18:57.703Z,48.83
2022-08-07T19:24:08.356Z,48.83
2022-08-07T19:31:03.913Z,48.73
2022-08-07T19:34:34.398Z,49.00
2022-08-07T19:39:56.275Z,48.77
2022-08-07T19:44:45.171Z,48.33
2022-08-07T19:49:58.372Z,48.93
2022-08-07T19:55:02.669Z,48.53
2022-08-07T20:00:28.307Z,48.83
2022-08-07T20:05:29.303Z,48.47
2022-08-07T20:10:55.250Z,48.13
2022-08-07T20:15:49.071Z,47.63
2022-08-07T20:20:58.488Z,48.23
2022-08-07T20:26:10.420Z,48.00
2022-08-07T20:31:21.899Z,47.93
2022-08-07T20:36:29.851Z,48.03
2022-08-07T20:41:40.410Z,47.40
2022-08-07T20:46:46.642Z,47.40
2022-08-07T20:51:52.044Z,47.60
2022-08-07T20:57:01.020Z,47.83
2022-08-07T21:07:42.038Z,48.27
2022-08-07T21:12:50.738Z,47.80
2022-08-07T21:18:25.747Z,48.90
2022-08-07T21:23:15.280Z,49.10
2022-08-07T21:28:49.062Z,49.45
2022-08-07T21:33:41.677Z,48.97
2022-08-07T21:38:56.162Z,48.57
2022-08-07T21:50:01.251Z,48.27
2022-08-07T21:54:52.870Z,47.90
2022-08-07T22:00:05.691Z,48.67
2022-08-07T22:05:43.823Z,48.33
2022-08-07T22:10:28.228Z,48.67
2022-08-07T22:16:44.596Z,48.23
2022-08-07T22:20:57.164Z,48.77
2022-08-07T22:26:22.888Z,47.87
2022-08-07T22:32:00.419Z,48.03
2022-08-07T22:37:12.428Z,48.00
2022-08-07T22:42:25.641Z,47.55
2022-08-07T22:47:37.778Z,47.67
2022-08-07T22:52:50.187Z,47.07
2022-08-07T22:58:17.823Z,47.50
2022-08-07T23:03:58.457Z,47.27
2022-08-07T23:10:04.562Z,46.73
2022-08-07T23:14:32.976Z,47.20
2022-08-07T23:20:14.691Z,47.13
2022-08-07T23:25:42.088Z,46.83
2022-08-07T23:31:11.250Z,46.37
2022-08-07T23:36:22.744Z,46.67
2022-08-07T23:42:01.717Z,46.70
2022-08-07T23:47:05.119Z,47.00
2022-08-07T23:53:00.969Z,46.00
2022-08-07T23:57:45.549Z,46.43
